sensor_id;sensor_type;location;lat;lon;timestamp;pressure;altitude;pressure_sealevel;temperature;humidity
10618;BME280;5356;43.526;26.534;2023-04-28T00:00:50;99356.97;;;11.27;94.08
10618;BME280;5356;43.526;26.534;2023-04-28T00:03:16;99361.72;;;11.25;93.90
10618;BME280;5356;43.526;26.534;2023-04-28T00:05:41;99348.53;;;11.30;94.59
10618;BME280;5356;43.526;26.534;2023-04-28T00:08:07;99355.50;;;11.31;94.78
10618;BME280;5356;43.526;26.534;2023-04-28T00:10:33;99361.00;;;11.36;94.93
10618;BME280;5356;43.526;26.534;2023-04-28T00:12:59;99356.31;;;11.32;94.93
10618;BME280;5356;43.526;26.534;2023-04-28T00:15:24;99356.47;;;11.37;93.98
10618;BME280;5356;43.526;26.534;2023-04-28T00:17:50;99353.16;;;11.41;93.54
10618;BME280;5356;43.526;26.534;2023-04-28T00:20:15;99352.09;;;11.42;91.52
10618;BME280;5356;43.526;26.534;2023-04-28T00:22:41;99357.28;;;11.37;91.49
10618;BME280;5356;43.526;26.534;2023-04-28T00:25:07;99358.09;;;11.38;91.38
10618;BME280;5356;43.526;26.534;2023-04-28T00:27:33;99361.88;;;11.30;92.46
10618;BME280;5356;43.526;26.534;2023-04-28T00:29:58;99358.75;;;11.33;92.40
10618;BME280;5356;43.526;26.534;2023-04-28T00:32:24;99360.75;;;11.38;92.19
10618;BME280;5356;43.526;26.534;2023-04-28T00:34:49;99364.84;;;11.40;92.89
10618;BME280;5356;43.526;26.534;2023-04-28T00:37:15;99369.59;;;11.38;92.98
10618;BME280;5356;43.526;26.534;2023-04-28T00:39:41;99373.72;;;11.34;92.44
10618;BME280;5356;43.526;26.534;2023-04-28T00:42:11;99372.53;;;11.30;91.81
10618;BME280;5356;43.526;26.534;2023-04-28T00:44:36;99373.56;;;11.29;91.85
10618;BME280;5356;43.526;26.534;2023-04-28T00:47:02;99387.06;;;11.34;90.91
10618;BME280;5356;43.526;26.534;2023-04-28T00:49:28;99388.91;;;11.34;90.76
10618;BME280;5356;43.526;26.534;2023-04-28T00:51:54;99387.88;;;11.35;90.42
10618;BME280;5356;43.526;26.534;2023-04-28T00:54:21;99395.28;;;11.33;89.26
10618;BME280;5356;43.526;26.534;2023-04-28T00:56:46;99392.75;;;11.38;89.15
10618;BME280;5356;43.526;26.534;2023-04-28T00:59:13;99396.03;;;11.40;88.49
10618;BME280;5356;43.526;26.534;2023-04-28T01:01:38;99394.25;;;11.34;87.03
10618;BME280;5356;43.526;26.534;2023-04-28T01:04:04;99388.53;;;11.30;87.93
10618;BME280;5356;43.526;26.534;2023-04-28T01:06:30;99384.66;;;11.26;89.26
10618;BME280;5356;43.526;26.534;2023-04-28T01:08:56;99394.91;;;11.29;89.56
10618;BME280;5356;43.526;26.534;2023-04-28T01:11:21;99396.53;;;11.30;90.43
10618;BME280;5356;43.526;26.534;2023-04-28T01:13:47;99391.84;;;11.26;90.35
10618;BME280;5356;43.526;26.534;2023-04-28T01:16:12;99386.75;;;11.24;91.06
10618;BME280;5356;43.526;26.534;2023-04-28T01:18:41;99387.19;;;11.21;92.32
10618;BME280;5356;43.526;26.534;2023-04-28T01:21:11;99387.78;;;11.23;92.50
10618;BME280;5356;43.526;26.534;2023-04-28T01:23:37;99389.63;;;11.22;91.52
10618;BME280;5356;43.526;26.534;2023-04-28T01:26:02;99388.38;;;11.25;91.81
10618;BME280;5356;43.526;26.534;2023-04-28T01:28:28;99391.66;;;11.27;90.43
10618;BME280;5356;43.526;26.534;2023-04-28T01:30:53;99380.00;;;11.21;90.42
10618;BME280;5356;43.526;26.534;2023-04-28T01:33:20;99385.28;;;11.28;90.45
10618;BME280;5356;43.526;26.534;2023-04-28T01:35:46;99382.41;;;11.30;90.74
10618;BME280;5356;43.526;26.534;2023-04-28T01:38:11;99380.91;;;11.34;91.54
10618;BME280;5356;43.526;26.534;2023-04-28T01:40:37;99379.78;;;11.23;92.50
10618;BME280;5356;43.526;26.534;2023-04-28T01:43:02;99386.06;;;11.10;91.75
10618;BME280;5356;43.526;26.534;2023-04-28T01:45:28;99378.63;;;11.12;92.19
10618;BME280;5356;43.526;26.534;2023-04-28T01:47:53;99382.72;;;11.15;93.00
10618;BME280;5356;43.526;26.534;2023-04-28T01:50:19;99378.78;;;11.17;93.21
10618;BME280;5356;43.526;26.534;2023-04-28T01:52:44;99375.75;;;11.14;94.25
10618;BME280;5356;43.526;26.534;2023-04-28T01:55:10;99367.16;;;11.12;94.31
10618;BME280;5356;43.526;26.534;2023-04-28T01:57:36;99372.75;;;11.04;94.83
10618;BME280;5356;43.526;26.534;2023-04-28T02:00:02;99374.13;;;10.88;93.58
10618;BME280;5356;43.526;26.534;2023-04-28T02:02:28;99366.84;;;10.76;92.81
10618;BME280;5356;43.526;26.534;2023-04-28T02:04:53;99376.13;;;10.67;91.95
10618;BME280;5356;43.526;26.534;2023-04-28T02:07:18;99373.72;;;10.59;92.23
10618;BME280;5356;43.526;26.534;2023-04-28T02:09:44;99375.16;;;10.62;92.19
10618;BME280;5356;43.526;26.534;2023-04-28T02:12:10;99378.19;;;10.65;92.24
10618;BME280;5356;43.526;26.534;2023-04-28T02:14:35;99377.75;;;10.68;92.86
10618;BME280;5356;43.526;26.534;2023-04-28T02:17:01;99381.75;;;10.52;92.44
10618;BME280;5356;43.526;26.534;2023-04-28T02:19:27;99382.91;;;10.25;93.57
10618;BME280;5356;43.526;26.534;2023-04-28T02:21:52;99383.81;;;10.05;94.61
10618;BME280;5356;43.526;26.534;2023-04-28T02:24:18;99373.66;;;9.82;95.92
10618;BME280;5356;43.526;26.534;2023-04-28T02:26:43;99379.84;;;9.63;97.04
10618;BME280;5356;43.526;26.534;2023-04-28T02:29:09;99380.91;;;9.42;98.74
10618;BME280;5356;43.526;26.534;2023-04-28T02:31:34;99381.53;;;9.37;99.03
10618;BME280;5356;43.526;26.534;2023-04-28T02:34:00;99386.03;;;9.30;99.64
10618;BME280;5356;43.526;26.534;2023-04-28T02:36:25;99390.13;;;9.33;100.00
10618;BME280;5356;43.526;26.534;2023-04-28T02:38:52;99389.31;;;9.46;100.00
10618;BME280;5356;43.526;26.534;2023-04-28T02:41:17;99394.19;;;9.55;100.00
10618;BME280;5356;43.526;26.534;2023-04-28T02:43:42;99395.00;;;9.56;100.00
10618;BME280;5356;43.526;26.534;2023-04-28T02:46:08;99391.56;;;9.29;100.00
10618;BME280;5356;43.526;26.534;2023-04-28T02:48:33;99402.59;;;9.06;100.00
10618;BME280;5356;43.526;26.534;2023-04-28T02:51:01;99404.03;;;9.02;100.00
10618;BME280;5356;43.526;26.534;2023-04-28T02:53:26;99403.63;;;9.11;100.00
10618;BME280;5356;43.526;26.534;2023-04-28T02:55:52;99410.16;;;9.22;100.00
10618;BME280;5356;43.526;26.534;2023-04-28T02:58:18;99408.13;;;9.31;100.00
10618;BME280;5356;43.526;26.534;2023-04-28T03:00:43;99408.53;;;9.28;100.00
10618;BME280;5356;43.526;26.534;2023-04-28T03:03:09;99421.63;;;9.22;100.00
10618;BME280;5356;43.526;26.534;2023-04-28T03:05:35;99420.38;;;9.25;100.00
10618;BME280;5356;43.526;26.534;2023-04-28T03:08:00;99421.63;;;9.29;100.00
10618;BME280;5356;43.526;26.534;2023-04-28T03:10:26;99425.72;;;9.32;100.00
10618;BME280;5356;43.526;26.534;2023-04-28T03:12:51;99428.97;;;9.27;100.00
10618;BME280;5356;43.526;26.534;2023-04-28T03:15:17;99422.84;;;9.27;100.00
10618;BME280;5356;43.526;26.534;2023-04-28T03:17:43;99437.19;;;9.26;100.00
10618;BME280;5356;43.526;26.534;2023-04-28T03:20:09;99434.28;;;9.14;100.00
10618;BME280;5356;43.526;26.534;2023-04-28T03:22:34;99427.75;;;9.10;100.00
10618;BME280;5356;43.526;26.534;2023-04-28T03:25:01;99439.41;;;9.15;100.00
10618;BME280;5356;43.526;26.534;2023-04-28T03:27:27;99438.78;;;9.13;100.00
10618;BME280;5356;43.526;26.534;2023-04-28T03:29:52;99444.09;;;9.13;100.00
10618;BME280;5356;43.526;26.534;2023-04-28T03:32:18;99437.78;;;9.14;100.00
10618;BME280;5356;43.526;26.534;2023-04-28T03:34:43;99445.34;;;9.17;100.00
10618;BME280;5356;43.526;26.534;2023-04-28T03:37:09;99434.72;;;9.04;100.00
10618;BME280;5356;43.526;26.534;2023-04-28T03:39:35;99444.13;;;9.07;100.00
10618;BME280;5356;43.526;26.534;2023-04-28T03:42:00;99446.56;;;9.02;100.00
10618;BME280;5356;43.526;26.534;2023-04-28T03:44:26;99445.34;;;9.04;100.00
10618;BME280;5356;43.526;26.534;2023-04-28T03:46:51;99453.72;;;9.01;100.00
10618;BME280;5356;43.526;26.534;2023-04-28T03:49:17;99453.28;;;8.91;100.00
10618;BME280;5356;43.526;26.534;2023-04-28T03:51:42;99466.16;;;8.94;100.00
10618;BME280;5356;43.526;26.534;2023-04-28T03:54:08;99471.06;;;8.97;100.00
10618;BME280;5356;43.526;26.534;2023-04-28T03:56:33;99477.63;;;9.01;100.00
10618;BME280;5356;43.526;26.534;2023-04-28T03:58:59;99475.16;;;8.99;100.00
10618;BME280;5356;43.526;26.534;2023-04-28T04:01:24;99485.56;;;8.94;100.00
10618;BME280;5356;43.526;26.534;2023-04-28T04:03:50;99486.41;;;8.95;100.00
10618;BME280;5356;43.526;26.534;2023-04-28T04:06:16;99492.31;;;8.97;100.00
10618;BME280;5356;43.526;26.534;2023-04-28T04:08:42;99483.31;;;8.91;100.00
10618;BME280;5356;43.526;26.534;2023-04-28T04:11:07;99495.19;;;8.95;100.00
10618;BME280;5356;43.526;26.534;2023-04-28T04:13:34;99497.81;;;8.89;100.00
10618;BME280;5356;43.526;26.534;2023-04-28T04:15:59;99492.72;;;8.94;100.00
10618;BME280;5356;43.526;26.534;2023-04-28T04:18:25;99501.28;;;8.83;100.00
10618;BME280;5356;43.526;26.534;2023-04-28T04:20:51;99500.81;;;8.66;100.00
10618;BME280;5356;43.526;26.534;2023-04-28T04:23:18;99506.38;;;8.71;100.00
10618;BME280;5356;43.526;26.534;2023-04-28T04:25:44;99499.22;;;8.71;100.00
10618;BME280;5356;43.526;26.534;2023-04-28T04:28:09;99501.09;;;8.84;100.00
10618;BME280;5356;43.526;26.534;2023-04-28T04:30:35;99499.25;;;8.91;100.00
10618;BME280;5356;43.526;26.534;2023-04-28T04:33:00;99505.00;;;9.02;100.00
10618;BME280;5356;43.526;26.534;2023-04-28T04:35:26;99503.00;;;9.10;100.00
10618;BME280;5356;43.526;26.534;2023-04-28T04:37:51;99500.72;;;9.14;100.00
10618;BME280;5356;43.526;26.534;2023-04-28T04:40:16;99492.59;;;9.29;100.00
10618;BME280;5356;43.526;26.534;2023-04-28T04:42:42;99500.97;;;9.39;100.00
10618;BME280;5356;43.526;26.534;2023-04-28T04:45:08;99496.91;;;9.43;100.00
10618;BME280;5356;43.526;26.534;2023-04-28T04:47:33;99507.50;;;9.56;100.00
10618;BME280;5356;43.526;26.534;2023-04-28T04:49:59;99513.03;;;9.61;100.00
10618;BME280;5356;43.526;26.534;2023-04-28T04:52:24;99518.97;;;9.70;100.00
10618;BME280;5356;43.526;26.534;2023-04-28T04:54:50;99512.22;;;9.61;100.00
10618;BME280;5356;43.526;26.534;2023-04-28T04:57:18;99518.16;;;9.70;100.00
10618;BME280;5356;43.526;26.534;2023-04-28T04:59:43;99523.03;;;9.79;100.00
10618;BME280;5356;43.526;26.534;2023-04-28T05:02:10;99531.22;;;9.84;100.00
10618;BME280;5356;43.526;26.534;2023-04-28T05:04:36;99536.94;;;10.01;100.00
10618;BME280;5356;43.526;26.534;2023-04-28T05:07:03;99531.63;;;10.08;100.00
10618;BME280;5356;43.526;26.534;2023-04-28T05:09:29;99529.72;;;10.22;100.00
10618;BME280;5356;43.526;26.534;2023-04-28T05:11:57;99535.41;;;10.52;100.00
10618;BME280;5356;43.526;26.534;2023-04-28T05:14:22;99542.16;;;10.54;100.00
10618;BME280;5356;43.526;26.534;2023-04-28T05:16:48;99535.03;;;10.48;100.00
10618;BME280;5356;43.526;26.534;2023-04-28T05:19:14;99536.03;;;10.54;98.91
10618;BME280;5356;43.526;26.534;2023-04-28T05:21:39;99542.16;;;10.54;97.84
10618;BME280;5356;43.526;26.534;2023-04-28T05:24:05;99534.38;;;10.60;97.17
10618;BME280;5356;43.526;26.534;2023-04-28T05:26:30;99547.03;;;10.64;95.45
10618;BME280;5356;43.526;26.534;2023-04-28T05:28:56;99549.09;;;10.69;94.83
10618;BME280;5356;43.526;26.534;2023-04-28T05:31:21;99539.81;;;10.78;94.37
10618;BME280;5356;43.526;26.534;2023-04-28T05:33:47;99544.09;;;10.86;93.56
10618;BME280;5356;43.526;26.534;2023-04-28T05:36:12;99545.69;;;10.93;93.28
10618;BME280;5356;43.526;26.534;2023-04-28T05:38:41;99552.84;;;10.99;92.64
10618;BME280;5356;43.526;26.534;2023-04-28T05:41:06;99550.59;;;10.96;90.96
10618;BME280;5356;43.526;26.534;2023-04-28T05:43:31;99554.28;;;10.95;89.24
10618;BME280;5356;43.526;26.534;2023-04-28T05:45:57;99558.56;;;11.03;89.40
10618;BME280;5356;43.526;26.534;2023-04-28T05:48:23;99558.69;;;11.15;89.07
10618;BME280;5356;43.526;26.534;2023-04-28T05:50:48;99568.06;;;11.31;88.92
10618;BME280;5356;43.526;26.534;2023-04-28T05:53:13;99567.31;;;11.49;88.73
10618;BME280;5356;43.526;26.534;2023-04-28T05:55:39;99560.69;;;11.58;88.71
10618;BME280;5356;43.526;26.534;2023-04-28T05:58:04;99571.41;;;11.76;88.68
10618;BME280;5356;43.526;26.534;2023-04-28T06:00:31;99571.59;;;11.81;87.37
10618;BME280;5356;43.526;26.534;2023-04-28T06:02:57;99574.28;;;11.75;75.01
10618;BME280;5356;43.526;26.534;2023-04-28T06:05:22;99565.63;;;11.79;73.80
10618;BME280;5356;43.526;26.534;2023-04-28T06:07:48;99563.91;;;11.91;72.15
10618;BME280;5356;43.526;26.534;2023-04-28T06:10:13;99572.53;;;11.94;66.21
10618;BME280;5356;43.526;26.534;2023-04-28T06:12:39;99571.66;;;12.00;65.70
10618;BME280;5356;43.526;26.534;2023-04-28T06:15:05;99565.38;;;12.12;66.47
10618;BME280;5356;43.526;26.534;2023-04-28T06:17:30;99568.50;;;12.28;65.76
10618;BME280;5356;43.526;26.534;2023-04-28T06:19:58;99569.19;;;12.23;63.40
10618;BME280;5356;43.526;26.534;2023-04-28T06:22:24;99564.41;;;12.25;63.44
10618;BME280;5356;43.526;26.534;2023-04-28T06:24:50;99569.19;;;12.42;64.46
10618;BME280;5356;43.526;26.534;2023-04-28T06:27:16;99572.63;;;12.49;62.89
10618;BME280;5356;43.526;26.534;2023-04-28T06:29:41;99574.84;;;12.52;62.60
10618;BME280;5356;43.526;26.534;2023-04-28T06:32:07;99584.03;;;12.38;60.14
10618;BME280;5356;43.526;26.534;2023-04-28T06:34:33;99582.78;;;12.40;60.96
10618;BME280;5356;43.526;26.534;2023-04-28T06:36:59;99583.41;;;12.17;57.73
10618;BME280;5356;43.526;26.534;2023-04-28T06:39:24;99584.44;;;12.16;58.32
10618;BME280;5356;43.526;26.534;2023-04-28T06:41:50;99591.41;;;12.17;56.67
10618;BME280;5356;43.526;26.534;2023-04-28T06:44:15;99578.63;;;12.26;58.36
10618;BME280;5356;43.526;26.534;2023-04-28T06:46:41;99583.66;;;12.52;58.87
10618;BME280;5356;43.526;26.534;2023-04-28T06:49:06;99586.25;;;12.59;59.34
10618;BME280;5356;43.526;26.534;2023-04-28T06:51:32;99577.78;;;12.62;58.61
10618;BME280;5356;43.526;26.534;2023-04-28T06:53:58;99584.28;;;12.54;56.41
10618;BME280;5356;43.526;26.534;2023-04-28T06:56:23;99581.38;;;12.56;57.04
10618;BME280;5356;43.526;26.534;2023-04-28T06:58:49;99585.81;;;12.62;55.78
10618;BME280;5356;43.526;26.534;2023-04-28T07:01:16;99584.56;;;12.65;55.91
10618;BME280;5356;43.526;26.534;2023-04-28T07:03:41;99590.28;;;12.68;55.98
10618;BME280;5356;43.526;26.534;2023-04-28T07:06:07;99575.63;;;12.71;56.07
10618;BME280;5356;43.526;26.534;2023-04-28T07:08:33;99581.53;;;12.79;53.71
10618;BME280;5356;43.526;26.534;2023-04-28T07:11:01;99574.97;;;12.94;53.61
10618;BME280;5356;43.526;26.534;2023-04-28T07:13:30;99582.91;;;13.00;53.65
10618;BME280;5356;43.526;26.534;2023-04-28T07:16:27;99567.25;;;13.16;53.88
10618;BME280;5356;43.526;26.534;2023-04-28T07:18:52;99566.94;;;13.24;52.79
10618;BME280;5356;43.526;26.534;2023-04-28T07:21:18;99578.16;;;13.33;52.26
10618;BME280;5356;43.526;26.534;2023-04-28T07:23:45;99583.53;;;13.44;52.42
10618;BME280;5356;43.526;26.534;2023-04-28T07:26:11;99576.84;;;13.54;52.80
10618;BME280;5356;43.526;26.534;2023-04-28T07:28:40;99567.06;;;13.59;52.48
10618;BME280;5356;43.526;26.534;2023-04-28T07:31:06;99587.41;;;13.48;51.95
10618;BME280;5356;43.526;26.534;2023-04-28T07:33:32;99572.03;;;13.44;50.70
10618;BME280;5356;43.526;26.534;2023-04-28T07:35:57;99578.47;;;13.55;50.00
10618;BME280;5356;43.526;26.534;2023-04-28T07:38:23;99577.78;;;13.59;50.57
10618;BME280;5356;43.526;26.534;2023-04-28T07:40:48;99575.34;;;13.69;50.95
10618;BME280;5356;43.526;26.534;2023-04-28T07:43:14;99570.91;;;13.63;49.57
10618;BME280;5356;43.526;26.534;2023-04-28T07:45:40;99578.34;;;13.61;47.88
10618;BME280;5356;43.526;26.534;2023-04-28T07:48:05;99574.03;;;13.48;48.07
10618;BME280;5356;43.526;26.534;2023-04-28T07:50:31;99572.91;;;13.56;50.18
10618;BME280;5356;43.526;26.534;2023-04-28T07:52:57;99575.47;;;13.75;50.26
10618;BME280;5356;43.526;26.534;2023-04-28T07:55:23;99577.00;;;13.94;49.76
10618;BME280;5356;43.526;26.534;2023-04-28T07:57:48;99583.09;;;14.01;49.72
10618;BME280;5356;43.526;26.534;2023-04-28T08:00:14;99567.81;;;13.90;48.08
10618;BME280;5356;43.526;26.534;2023-04-28T08:02:40;99575.38;;;13.93;48.14
10618;BME280;5356;43.526;26.534;2023-04-28T08:05:05;99567.69;;;13.85;47.96
10618;BME280;5356;43.526;26.534;2023-04-28T08:07:33;99566.50;;;13.81;48.04
10618;BME280;5356;43.526;26.534;2023-04-28T08:09:58;99560.59;;;13.79;48.09
10618;BME280;5356;43.526;26.534;2023-04-28T08:12:25;99563.63;;;13.94;48.42
10618;BME280;5356;43.526;26.534;2023-04-28T08:14:51;99558.84;;;14.08;48.02
10618;BME280;5356;43.526;26.534;2023-04-28T08:17:17;99566.06;;;14.19;47.55
10618;BME280;5356;43.526;26.534;2023-04-28T08:19:42;99567.34;;;14.17;47.40
10618;BME280;5356;43.526;26.534;2023-04-28T08:22:10;99561.16;;;14.28;47.36
10618;BME280;5356;43.526;26.534;2023-04-28T08:24:36;99559.16;;;14.35;47.00
10618;BME280;5356;43.526;26.534;2023-04-28T08:27:02;99563.38;;;14.31;47.00
10618;BME280;5356;43.526;26.534;2023-04-28T08:29:29;99565.34;;;14.12;47.00
10618;BME280;5356;43.526;26.534;2023-04-28T08:31:55;99555.34;;;14.07;45.79
10618;BME280;5356;43.526;26.534;2023-04-28T08:34:20;99557.78;;;14.09;46.46
10618;BME280;5356;43.526;26.534;2023-04-28T08:36:45;99567.69;;;14.08;45.49
10618;BME280;5356;43.526;26.534;2023-04-28T08:39:11;99552.78;;;14.12;46.92
10618;BME280;5356;43.526;26.534;2023-04-28T08:41:37;99542.63;;;14.26;46.52
10618;BME280;5356;43.526;26.534;2023-04-28T08:44:10;99565.00;;;14.44;45.69
10618;BME280;5356;43.526;26.534;2023-04-28T08:46:40;99539.97;;;14.38;44.78
10618;BME280;5356;43.526;26.534;2023-04-28T08:49:13;99550.22;;;14.53;45.55
10618;BME280;5356;43.526;26.534;2023-04-28T08:51:45;99546.56;;;14.59;45.19
10618;BME280;5356;43.526;26.534;2023-04-28T08:54:15;99547.28;;;14.54;45.75
10618;BME280;5356;43.526;26.534;2023-04-28T08:56:41;99537.47;;;14.48;44.81
10618;BME280;5356;43.526;26.534;2023-04-28T08:59:10;99534.56;;;14.50;45.91
10618;BME280;5356;43.526;26.534;2023-04-28T09:01:36;99529.53;;;14.65;46.21
10618;BME280;5356;43.526;26.534;2023-04-28T09:04:03;99529.88;;;14.69;45.59
10618;BME280;5356;43.526;26.534;2023-04-28T09:06:33;99515.97;;;14.72;45.85
10618;BME280;5356;43.526;26.534;2023-04-28T09:09:25;99517.09;;;14.47;46.19
10618;BME280;5356;43.526;26.534;2023-04-28T09:12:01;99523.84;;;14.50;44.87
10618;BME280;5356;43.526;26.534;2023-04-28T09:14:29;99519.31;;;14.38;45.34
10618;BME280;5356;43.526;26.534;2023-04-28T09:16:57;99529.09;;;14.45;45.73
10618;BME280;5356;43.526;26.534;2023-04-28T09:19:23;99532.91;;;14.49;44.66
10618;BME280;5356;43.526;26.534;2023-04-28T09:21:56;99529.44;;;14.48;44.72
10618;BME280;5356;43.526;26.534;2023-04-28T09:26:51;99521.31;;;14.31;45.05
10618;BME280;5356;43.526;26.534;2023-04-28T09:29:16;99527.59;;;14.37;45.47
10618;BME280;5356;43.526;26.534;2023-04-28T09:31:42;99518.03;;;14.41;45.41
10618;BME280;5356;43.526;26.534;2023-04-28T09:34:08;99525.25;;;14.41;45.08
10618;BME280;5356;43.526;26.534;2023-04-28T09:36:34;99523.41;;;14.41;45.03
10618;BME280;5356;43.526;26.534;2023-04-28T09:39:00;99532.03;;;14.31;45.39
10618;BME280;5356;43.526;26.534;2023-04-28T09:41:39;99527.47;;;14.32;45.40
10618;BME280;5356;43.526;26.534;2023-04-28T09:44:24;99530.97;;;14.21;45.84
10618;BME280;5356;43.526;26.534;2023-04-28T09:46:50;99519.25;;;14.22;45.89
10618;BME280;5356;43.526;26.534;2023-04-28T09:49:16;99520.72;;;14.41;46.93
10618;BME280;5356;43.526;26.534;2023-04-28T09:52:19;99522.69;;;14.46;45.60
10618;BME280;5356;43.526;26.534;2023-04-28T09:54:46;99516.41;;;14.40;46.51
10618;BME280;5356;43.526;26.534;2023-04-28T09:57:29;99514.44;;;14.24;46.26
10618;BME280;5356;43.526;26.534;2023-04-28T09:59:57;99508.53;;;14.22;45.89
10618;BME280;5356;43.526;26.534;2023-04-28T10:02:24;99507.41;;;14.46;44.55
10618;BME280;5356;43.526;26.534;2023-04-28T10:04:50;99501.09;;;14.64;44.19
10618;BME280;5356;43.526;26.534;2023-04-28T10:07:18;99493.88;;;14.93;43.73
10618;BME280;5356;43.526;26.534;2023-04-28T10:09:46;99492.31;;;15.26;43.31
10618;BME280;5356;43.526;26.534;2023-04-28T10:12:21;99486.97;;;15.14;41.88
10618;BME280;5356;43.526;26.534;2023-04-28T10:14:48;99490.63;;;15.08;42.02
10618;BME280;5356;43.526;26.534;2023-04-28T10:17:16;99494.56;;;14.89;41.96
10618;BME280;5356;43.526;26.534;2023-04-28T10:19:43;99489.16;;;14.84;42.12
10618;BME280;5356;43.526;26.534;2023-04-28T10:27:28;99494.94;;;14.92;42.02
10618;BME280;5356;43.526;26.534;2023-04-28T10:30:09;99492.31;;;14.97;41.79
10618;BME280;5356;43.526;26.534;2023-04-28T10:32:35;99488.50;;;14.93;41.28
10618;BME280;5356;43.526;26.534;2023-04-28T10:38:12;99491.88;;;15.51;41.23
10618;BME280;5356;43.526;26.534;2023-04-28T10:40:39;99489.88;;;15.41;42.19
10618;BME280;5356;43.526;26.534;2023-04-28T10:43:32;99492.63;;;15.30;41.83
10618;BME280;5356;43.526;26.534;2023-04-28T10:56:10;99475.78;;;15.68;42.33
10618;BME280;5356;43.526;26.534;2023-04-28T10:58:36;99480.59;;;15.66;41.92
10618;BME280;5356;43.526;26.534;2023-04-28T11:06:26;99481.81;;;15.24;41.61
10618;BME280;5356;43.526;26.534;2023-04-28T11:09:03;99475.03;;;15.22;41.64
10618;BME280;5356;43.526;26.534;2023-04-28T11:16:50;99486.88;;;15.71;42.32
10618;BME280;5356;43.526;26.534;2023-04-28T11:19:23;99486.88;;;15.71;42.58
10618;BME280;5356;43.526;26.534;2023-04-28T11:21:53;99481.22;;;15.56;41.90
10618;BME280;5356;43.526;26.534;2023-04-28T11:24:23;99481.22;;;15.39;42.54
10618;BME280;5356;43.526;26.534;2023-04-28T11:26:55;99481.72;;;15.53;42.51
10618;BME280;5356;43.526;26.534;2023-04-28T11:29:37;99485.97;;;15.49;42.96
10618;BME280;5356;43.526;26.534;2023-04-28T11:32:07;99473.75;;;15.58;42.66
10618;BME280;5356;43.526;26.534;2023-04-28T11:34:34;99485.00;;;15.55;42.75
10618;BME280;5356;43.526;26.534;2023-04-28T11:37:01;99489.78;;;15.53;43.06
10618;BME280;5356;43.526;26.534;2023-04-28T11:39:28;99483.69;;;15.58;42.19
10618;BME280;5356;43.526;26.534;2023-04-28T11:41:55;99482.13;;;15.79;42.86
10618;BME280;5356;43.526;26.534;2023-04-28T11:44:24;99478.94;;;15.99;42.48
10618;BME280;5356;43.526;26.534;2023-04-28T11:46:52;99489.91;;;16.14;42.71
10618;BME280;5356;43.526;26.534;2023-04-28T11:49:21;99474.19;;;16.50;42.13
10618;BME280;5356;43.526;26.534;2023-04-28T11:51:49;99464.06;;;16.57;41.61
10618;BME280;5356;43.526;26.534;2023-04-28T11:54:20;99467.06;;;16.82;41.45
10618;BME280;5356;43.526;26.534;2023-04-28T11:56:46;99463.19;;;16.73;40.94
10618;BME280;5356;43.526;26.534;2023-04-28T11:59:12;99456.59;;;16.64;40.54
10618;BME280;5356;43.526;26.534;2023-04-28T12:01:52;99474.13;;;16.67;40.43
10618;BME280;5356;43.526;26.534;2023-04-28T12:04:32;99453.31;;;16.79;40.11
10618;BME280;5356;43.526;26.534;2023-04-28T12:07:10;99460.50;;;16.51;40.27
10618;BME280;5356;43.526;26.534;2023-04-28T12:09:38;99458.56;;;16.47;40.75
10618;BME280;5356;43.526;26.534;2023-04-28T12:12:06;99452.31;;;16.63;40.76
10618;BME280;5356;43.526;26.534;2023-04-28T12:14:53;99444.72;;;16.60;40.66
10618;BME280;5356;43.526;26.534;2023-04-28T12:17:29;99447.13;;;16.34;40.34
10618;BME280;5356;43.526;26.534;2023-04-28T12:19:56;99441.19;;;16.10;40.70
10618;BME280;5356;43.526;26.534;2023-04-28T12:22:23;99447.06;;;16.07;41.25
10618;BME280;5356;43.526;26.534;2023-04-28T12:25:05;99445.63;;;16.00;41.54
10618;BME280;5356;43.526;26.534;2023-04-28T12:27:32;99458.28;;;15.82;41.59
10618;BME280;5356;43.526;26.534;2023-04-28T12:29:58;99453.84;;;15.71;41.78
10618;BME280;5356;43.526;26.534;2023-04-28T12:32:40;99450.97;;;15.61;41.65
10618;BME280;5356;43.526;26.534;2023-04-28T12:35:07;99447.81;;;15.47;42.05
10618;BME280;5356;43.526;26.534;2023-04-28T12:37:33;99454.31;;;15.34;42.28
10618;BME280;5356;43.526;26.534;2023-04-28T12:39:59;99451.78;;;15.27;42.42
10618;BME280;5356;43.526;26.534;2023-04-28T12:42:24;99444.06;;;15.31;42.37
10618;BME280;5356;43.526;26.534;2023-04-28T12:44:50;99435.69;;;15.11;42.89
10618;BME280;5356;43.526;26.534;2023-04-28T12:47:17;99439.56;;;15.54;43.10
10618;BME280;5356;43.526;26.534;2023-04-28T12:49:43;99435.19;;;15.31;42.76
10618;BME280;5356;43.526;26.534;2023-04-28T12:52:09;99426.50;;;15.40;43.22
10618;BME280;5356;43.526;26.534;2023-04-28T12:54:34;99427.53;;;15.39;43.00
10618;BME280;5356;43.526;26.534;2023-04-28T12:57:01;99428.44;;;15.28;43.26
10618;BME280;5356;43.526;26.534;2023-04-28T12:59:27;99423.56;;;15.25;44.13
10618;BME280;5356;43.526;26.534;2023-04-28T13:01:53;99427.81;;;15.21;43.87
10618;BME280;5356;43.526;26.534;2023-04-28T13:04:20;99422.56;;;14.97;44.13
10618;BME280;5356;43.526;26.534;2023-04-28T13:06:47;99424.03;;;14.88;43.94
10618;BME280;5356;43.526;26.534;2023-04-28T13:09:13;99423.06;;;14.94;43.75
10618;BME280;5356;43.526;26.534;2023-04-28T13:11:40;99416.66;;;14.95;44.00
10618;BME280;5356;43.526;26.534;2023-04-28T13:14:06;99415.19;;;15.04;44.03
10618;BME280;5356;43.526;26.534;2023-04-28T13:16:38;99413.56;;;15.20;43.95
10618;BME280;5356;43.526;26.534;2023-04-28T13:19:09;99411.28;;;15.29;43.55
10618;BME280;5356;43.526;26.534;2023-04-28T13:21:38;99405.03;;;15.40;43.86
10618;BME280;5356;43.526;26.534;2023-04-28T13:24:04;99402.13;;;15.64;43.58
10618;BME280;5356;43.526;26.534;2023-04-28T13:26:30;99397.44;;;16.15;43.20
10618;BME280;5356;43.526;26.534;2023-04-28T13:28:55;99389.44;;;16.47;43.51
10618;BME280;5356;43.526;26.534;2023-04-28T13:31:21;99398.81;;;16.39;43.14